Ames, South Dakota
Current Conditions -  °F | °C
As of 8:53 PM on Sunday 21 Dec 2014 (Local Time) from KPIR Reporting Station
Overcast Overcast  
Wind Chill: -5°   Ceiling: 10000
Heat Index: -2°   Visibility: 9mi
Dew Point: -3°   Wind: 6mph
Humidity: 92%   Direction: 300°WNW
Pressure: 29.42"   Gusts: NA
Location:  44.3693°N, 100.04°W
Report Text: KPIR 220253Z AUTO 30005KT 9SM OVC100 M02/M03 A2942 RMK AO2 SLP982 T10171028 53007
Loading
Personal Weather Stations






























Interactive Weather Map New forecast layout! Learn more

10-Day Weather Forecast

Advertisements
Track Severe Weather on mobile